Time;durP1;ratioP1;P1;durP2;ratioP2;P2;SDS_P1;SDS_P2;PMS_P1;PMS_P2;Temp;Humidity;BMP_temperature;BMP_pressure;BME280_temperature;BME280_humidity;BME280_pressure;Samples;Min_cycle;Max_cycle;Signal;HPM_P1;HPM_P2
2023/04/18 00:01:49;;;;;;;16.07;10.77;;;7.70;99.90;;;;;;5021027;28;20217;-81
2023/04/18 00:04:16;;;;;;;18.60;11.07;;;7.70;99.90;;;;;;5022139;28;20238;-81
2023/04/18 00:06:46;;;;;;;18.50;11.20;;;7.70;99.90;;;;;;5026045;28;20270;-82
2023/04/18 00:09:12;;;;;;;14.50;11.00;;;7.60;99.90;;;;;;5022738;28;20298;-80
2023/04/18 00:11:39;;;;;;;13.73;10.73;;;7.60;99.90;;;;;;5011694;28;20287;-81
2023/04/18 00:14:07;;;;;;;16.60;11.77;;;7.50;99.90;;;;;;5011579;28;20310;-80
2023/04/18 00:16:34;;;;;;;18.17;11.93;;;7.90;99.90;;;;;;5026761;28;20264;-82
2023/04/18 00:19:03;;;;;;;15.90;12.07;;;8.00;99.90;;;;;;5022879;28;20204;-80
2023/04/18 00:21:30;;;;;;;16.00;11.27;;;7.40;99.90;;;;;;5024201;28;20230;-79
2023/04/18 00:23:57;;;;;;;22.97;11.40;;;7.40;99.90;;;;;;5027629;28;20227;-81
2023/04/18 00:26:26;;;;;;;14.30;11.20;;;7.30;99.90;;;;;;5021476;28;20209;-80
2023/04/18 00:28:52;;;;;;;19.27;11.50;;;7.30;99.90;;;;;;5032835;28;20217;-80
2023/04/18 00:31:19;;;;;;;15.20;10.70;;;7.20;99.90;;;;;;5026404;28;20297;-82
2023/04/18 00:33:47;;;;;;;12.50;10.37;;;;;;;;;;5018079;28;20212;-80
2023/04/18 00:36:13;;;;;;;16.53;11.07;;;7.10;99.90;;;;;;5030774;28;20266;-79
2023/04/18 00:38:40;;;;;;;16.57;10.93;;;7.10;99.90;;;;;;5025738;28;20277;-80
2023/04/18 00:41:07;;;;;;;17.13;10.77;;;7.10;99.90;;;;;;5027196;28;20259;-81
2023/04/18 00:43:34;;;;;;;15.87;10.73;;;7.10;99.90;;;;;;5023959;28;20317;-81
2023/04/18 00:46:01;;;;;;;14.73;10.53;;;7.00;99.90;;;;;;5028080;28;20699;-80
2023/04/18 00:48:29;;;;;;;17.87;10.97;;;7.00;99.90;;;;;;5024957;28;20213;-81
2023/04/18 00:50:59;;;;;;;16.33;11.30;;;7.00;99.90;;;;;;5022546;28;20289;-81
2023/04/18 00:53:26;;;;;;;14.13;10.90;;;7.00;99.90;;;;;;5026273;28;20202;-82
2023/04/18 00:55:54;;;;;;;17.63;10.90;;;7.00;99.90;;;;;;5026303;28;20568;-79
2023/04/18 00:58:21;;;;;;;15.00;11.43;;;6.90;99.90;;;;;;5024774;28;20281;-80
2023/04/18 01:00:48;;;;;;;16.43;10.93;;;6.90;99.90;;;;;;5021946;28;20313;-80
2023/04/18 01:03:16;;;;;;;16.30;10.33;;;6.90;99.90;;;;;;5025669;28;20316;-81
2023/04/18 01:05:45;;;;;;;15.17;10.40;;;6.80;99.90;;;;;;5031324;28;20203;-81
2023/04/18 01:08:12;;;;;;;14.47;10.37;;;6.70;99.90;;;;;;5028021;28;20239;-81
2023/04/18 01:10:39;;;;;;;17.60;10.60;;;6.80;99.90;;;;;;5030844;28;20214;-81
2023/04/18 01:13:14;;;;;;;14.63;11.40;;;6.80;99.90;;;;;;5026189;28;20218;-80
2023/04/18 01:15:49;;;;;;;15.80;10.73;;;6.80;99.90;;;;;;5012052;28;20229;-82
2023/04/18 01:18:16;;;;;;;16.87;11.40;;;6.80;99.90;;;;;;5022859;28;20200;-81
2023/04/18 01:20:47;;;;;;;16.43;11.57;;;6.70;99.90;;;;;;5030291;28;20276;-81
2023/04/18 01:23:15;;;;;;;14.23;11.17;;;6.70;99.90;;;;;;5026480;28;20219;-81
2023/04/18 01:25:43;;;;;;;17.77;10.90;;;6.70;99.90;;;;;;5028506;28;20260;-82
2023/04/18 01:28:13;;;;;;;14.47;10.57;;;6.70;99.90;;;;;;5016687;28;20194;-79
2023/04/18 01:30:40;;;;;;;17.97;11.27;;;6.70;99.90;;;;;;5026583;28;20683;-79
2023/04/18 01:33:07;;;;;;;17.47;10.80;;;6.70;99.90;;;;;;5024794;28;20264;-81
2023/04/18 01:35:34;;;;;;;17.07;10.67;;;6.70;99.90;;;;;;5023480;28;20276;-82
2023/04/18 01:38:01;;;;;;;18.33;11.67;;;6.80;99.90;;;;;;5031926;28;20194;-79
2023/04/18 01:40:28;;;;;;;16.47;11.47;;;6.80;99.90;;;;;;5027405;28;20276;-80
2023/04/18 01:42:55;;;;;;;18.83;10.63;;;6.80;99.90;;;;;;5029459;28;20666;-79
2023/04/18 01:45:22;;;;;;;17.23;11.13;;;6.90;99.90;;;;;;5030727;28;20215;-79
2023/04/18 01:47:49;;;;;;;18.00;11.13;;;6.90;99.90;;;;;;5029377;28;20207;-81
2023/04/18 01:50:16;;;;;;;18.67;11.17;;;6.90;99.90;;;;;;5027881;28;20206;-80
2023/04/18 01:52:42;;;;;;;17.07;11.13;;;6.90;99.90;;;;;;5013758;28;20248;-81
2023/04/18 01:55:10;;;;;;;18.93;12.00;;;6.90;99.90;;;;;;5034569;28;20206;-81
2023/04/18 01:57:37;;;;;;;17.73;11.60;;;6.90;99.90;;;;;;5025594;28;20292;-80
2023/04/18 02:00:05;;;;;;;18.53;11.20;;;6.80;99.90;;;;;;5028017;28;20309;-81
2023/04/18 02:02:31;;;;;;;15.40;11.33;;;6.80;99.90;;;;;;5008074;28;20214;-83
2023/04/18 02:04:59;;;;;;;18.10;12.07;;;6.80;99.90;;;;;;5028372;28;20225;-81
2023/04/18 02:07:25;;;;;;;18.23;12.00;;;6.70;99.90;;;;;;5029078;28;20217;-81
2023/04/18 02:09:52;;;;;;;14.50;11.00;;;6.70;99.90;;;;;;5029502;28;20688;-80
2023/04/18 02:12:19;;;;;;;16.47;11.73;;;6.70;99.90;;;;;;5025684;28;20214;-82
2023/04/18 02:14:50;;;;;;;14.53;11.20;;;6.60;99.90;;;;;;5024697;28;20260;-81
2023/04/18 02:17:18;;;;;;;17.13;11.67;;;6.60;99.90;;;;;;5026170;28;20216;-81
2023/04/18 02:19:45;;;;;;;19.13;11.10;;;6.50;99.90;;;;;;5026857;28;20317;-81
2023/04/18 02:22:12;;;;;;;18.00;12.00;;;6.50;99.90;;;;;;5019401;28;20276;-81
2023/04/18 02:24:39;;;;;;;14.50;11.33;;;6.50;99.90;;;;;;5017372;28;20341;-81
2023/04/18 02:27:06;;;;;;;18.07;11.83;;;6.50;99.90;;;;;;5027767;28;20235;-79
2023/04/18 02:29:33;;;;;;;16.83;11.37;;;6.40;99.90;;;;;;5026716;28;20351;-80
2023/04/18 02:32:00;;;;;;;18.87;12.23;;;6.40;99.90;;;;;;5025647;28;20272;-80
2023/04/18 02:34:27;;;;;;;17.13;11.53;;;6.40;99.90;;;;;;5026975;28;20678;-81
2023/04/18 02:36:56;;;;;;;23.13;12.07;;;6.30;99.90;;;;;;5026142;28;20246;-82
2023/04/18 02:39:22;;;;;;;18.90;12.33;;;6.20;99.90;;;;;;5036288;28;20232;-80
2023/04/18 02:41:49;;;;;;;18.43;12.00;;;6.20;99.90;;;;;;5011002;28;20237;-81
2023/04/18 02:44:17;;;;;;;17.80;12.53;;;6.20;99.90;;;;;;5028290;28;20922;-81
2023/04/18 02:46:44;;;;;;;18.87;11.90;;;6.20;99.90;;;;;;5007217;28;20324;-82
2023/04/18 02:49:11;;;;;;;19.43;12.23;;;6.10;99.90;;;;;;5006745;28;20211;-81
2023/04/18 02:51:37;;;;;;;17.93;11.93;;;6.10;99.90;;;;;;5030189;28;20289;-82
2023/04/18 02:54:04;;;;;;;19.30;12.67;;;6.00;99.90;;;;;;5028074;28;20198;-82
2023/04/18 02:56:32;;;;;;;19.97;11.97;;;6.00;99.90;;;;;;5027554;28;20196;-81
2023/04/18 02:58:59;;;;;;;17.77;12.47;;;6.00;99.90;;;;;;5026649;28;20232;-80
2023/04/18 03:01:25;;;;;;;19.57;12.67;;;6.00;99.90;;;;;;5029143;28;20235;-81
2023/04/18 03:03:52;;;;;;;20.30;12.53;;;6.00;99.90;;;;;;5024678;28;20268;-81
2023/04/18 03:06:19;;;;;;;16.97;12.13;;;6.20;99.90;;;;;;5028842;28;20228;-81
2023/04/18 03:08:46;;;;;;;18.70;12.27;;;6.10;99.90;;;;;;5029737;28;20265;-82
2023/04/18 03:11:13;;;;;;;19.73;13.03;;;6.10;99.90;;;;;;5026502;28;20219;-81
2023/04/18 03:13:40;;;;;;;23.53;13.23;;;6.10;99.90;;;;;;5008473;28;20674;-82
2023/04/18 03:16:07;;;;;;;16.73;12.77;;;6.20;99.90;;;;;;5026863;28;20769;-81
2023/04/18 03:18:34;;;;;;;19.03;12.63;;;6.30;99.90;;;;;;5026370;28;20298;-81
2023/04/18 03:21:01;;;;;;;19.20;13.33;;;6.30;99.90;;;;;;5010450;28;20245;-82
2023/04/18 03:23:27;;;;;;;21.50;12.90;;;6.30;99.90;;;;;;5023189;28;20926;-80
2023/04/18 03:25:54;;;;;;;17.73;13.53;;;6.40;99.90;;;;;;5026587;28;20321;-80
2023/04/18 03:28:21;;;;;;;20.27;12.90;;;6.40;99.90;;;;;;5022986;28;20280;-79
2023/04/18 03:30:49;;;;;;;19.97;13.07;;;6.40;99.90;;;;;;5025206;28;20214;-80
2023/04/18 03:33:16;;;;;;;20.80;13.93;;;6.40;99.90;;;;;;5026873;28;20709;-82
2023/04/18 03:35:43;;;;;;;17.93;13.40;;;6.50;99.90;;;;;;5027858;28;20237;-80
2023/04/18 03:38:09;;;;;;;20.30;14.17;;;6.50;99.90;;;;;;4996973;28;20294;-81
2023/04/18 03:40:36;;;;;;;20.97;14.40;;;6.60;99.90;;;;;;5028008;28;20245;-81
2023/04/18 03:43:03;;;;;;;20.73;13.07;;;6.60;99.90;;;;;;5012722;28;20206;-79
2023/04/18 03:45:30;;;;;;;21.10;14.40;;;6.60;99.90;;;;;;5014603;28;20324;-81
2023/04/18 03:47:57;;;;;;;18.93;13.10;;;6.60;99.90;;;;;;5022945;28;20288;-82
2023/04/18 03:50:24;;;;;;;22.80;14.20;;;6.70;99.90;;;;;;5021345;28;20217;-82
2023/04/18 03:52:51;;;;;;;20.80;14.23;;;6.70;99.90;;;;;;5020593;28;20253;-83
2023/04/18 03:55:18;;;;;;;22.23;13.97;;;6.70;99.90;;;;;;5032805;28;20259;-81
2023/04/18 03:57:46;;;;;;;19.00;12.87;;;6.70;99.90;;;;;;5013591;28;20293;-82
2023/04/18 04:00:13;;;;;;;22.53;14.70;;;6.70;99.90;;;;;;5029287;28;20221;-81
2023/04/18 04:02:40;;;;;;;25.53;15.47;;;6.70;99.90;;;;;;5027036;28;20251;-81
2023/04/18 04:05:07;;;;;;;21.77;14.90;;;6.80;99.90;;;;;;5021703;28;20225;-81
2023/04/18 04:07:35;;;;;;;20.83;14.47;;;6.70;99.90;;;;;;5027496;28;20218;-82
2023/04/18 04:10:02;;;;;;;23.07;14.70;;;6.80;99.90;;;;;;5025901;28;20206;-81
2023/04/18 04:12:29;;;;;;;20.50;14.50;;;6.80;99.90;;;;;;5028366;28;20269;-81
2023/04/18 04:14:55;;;;;;;25.97;14.60;;;6.80;99.90;;;;;;5025627;28;20315;-80
2023/04/18 04:17:22;;;;;;;22.23;15.77;;;6.80;99.90;;;;;;5027267;28;20293;-82
2023/04/18 04:19:50;;;;;;;26.07;14.10;;;6.80;99.90;;;;;;5030133;28;20206;-80
2023/04/18 04:22:17;;;;;;;22.50;14.37;;;6.80;99.90;;;;;;5022714;28;20238;-82
2023/04/18 04:24:45;;;;;;;24.77;14.93;;;6.70;99.90;;;;;;5028284;28;20319;-82
2023/04/18 04:27:12;;;;;;;24.13;14.43;;;6.70;99.90;;;;;;5005144;28;20207;-81
2023/04/18 04:29:40;;;;;;;22.27;14.17;;;6.80;99.90;;;;;;5024247;28;20721;-82
2023/04/18 04:32:09;;;;;;;28.00;15.17;;;6.80;99.90;;;;;;5012172;28;20289;-81
2023/04/18 04:34:35;;;;;;;22.60;14.20;;;6.80;99.90;;;;;;5023686;28;20227;-82
2023/04/18 04:37:02;;;;;;;22.20;14.67;;;6.90;99.90;;;;;;5024897;28;20209;-83
2023/04/18 04:39:29;;;;;;;20.63;14.23;;;6.90;99.90;;;;;;5023979;28;20209;-80
2023/04/18 04:42:02;;;;;;;23.93;14.73;;;6.90;99.90;;;;;;5029795;28;20209;-81
2023/04/18 04:44:30;;;;;;;21.87;14.37;;;6.90;99.90;;;;;;5032840;28;20292;-80
2023/04/18 04:46:58;;;;;;;25.60;15.33;;;6.90;99.90;;;;;;5031600;28;20569;-80
2023/04/18 04:49:26;;;;;;;21.27;14.93;;;6.90;99.90;;;;;;5033492;28;20587;-80
2023/04/18 04:51:52;;;;;;;21.70;15.03;;;6.90;99.90;;;;;;5028578;28;20214;-81
2023/04/18 04:54:19;;;;;;;21.77;14.70;;;6.90;99.90;;;;;;5032806;28;20290;-80
2023/04/18 04:56:46;;;;;;;20.80;14.63;;;6.90;99.90;;;;;;5027364;28;20214;-81
2023/04/18 04:59:13;;;;;;;25.60;16.30;;;6.90;99.90;;;;;;5023876;28;20306;-81
2023/04/18 05:01:40;;;;;;;23.57;14.90;;;6.90;99.90;;;;;;5026662;28;20198;-81
2023/04/18 05:04:07;;;;;;;21.97;14.83;;;7.10;99.90;;;;;;5026349;28;20294;-83
2023/04/18 05:06:34;;;;;;;22.60;15.63;;;7.00;99.90;;;;;;5029491;28;20909;-82
2023/04/18 05:09:01;;;;;;;22.93;15.43;;;7.00;99.90;;;;;;5025112;28;20300;-82
2023/04/18 05:11:28;;;;;;;23.73;15.20;;;7.10;99.90;;;;;;5026200;28;20207;-81
2023/04/18 05:13:54;;;;;;;26.13;15.33;;;7.10;99.90;;;;;;5026904;28;20206;-80
2023/04/18 05:16:21;;;;;;;24.60;14.70;;;7.10;99.90;;;;;;5026596;28;20569;-79
2023/04/18 05:18:48;;;;;;;23.03;15.13;;;7.10;99.90;;;;;;5029494;28;20288;-82
2023/04/18 05:21:15;;;;;;;23.67;15.13;;;7.10;99.90;;;;;;5028166;28;20257;-80
2023/04/18 05:23:41;;;;;;;23.43;14.80;;;7.10;99.90;;;;;;5033287;28;20298;-81
2023/04/18 05:26:08;;;;;;;24.90;14.63;;;7.10;99.90;;;;;;5014848;28;20263;-84
2023/04/18 05:28:35;;;;;;;22.53;14.07;;;7.20;99.90;;;;;;5028730;28;20237;-82
2023/04/18 05:31:02;;;;;;;22.77;14.47;;;7.20;99.90;;;;;;5028785;28;20224;-83
2023/04/18 05:33:30;;;;;;;24.43;14.53;;;7.30;99.90;;;;;;5037484;28;20215;-85
2023/04/18 05:35:57;;;;;;;23.87;15.07;;;7.30;99.90;;;;;;5032150;28;20210;-81
2023/04/18 05:38:24;;;;;;;23.97;15.30;;;7.30;99.90;;;;;;5032292;28;20215;-82
2023/04/18 05:40:51;;;;;;;21.43;14.10;;;7.40;99.90;;;;;;5024863;28;20262;-84
2023/04/18 05:43:18;;;;;;;23.63;14.40;;;7.40;99.90;;;;;;5030093;28;20765;-81
2023/04/18 05:45:45;;;;;;;24.53;14.90;;;7.50;99.90;;;;;;5027157;28;20602;-81
2023/04/18 05:48:13;;;;;;;24.67;14.43;;;7.50;99.90;;;;;;5031647;28;20212;-82
2023/04/18 05:50:39;;;;;;;24.57;15.47;;;7.60;99.90;;;;;;5010756;28;21536;-83
2023/04/18 05:53:08;;;;;;;21.87;14.03;;;7.60;99.90;;;;;;5009365;28;20231;-85
2023/04/18 05:55:34;;;;;;;23.57;14.70;;;7.70;99.90;;;;;;5028024;28;20213;-84
2023/04/18 05:58:01;;;;;;;21.97;14.67;;;7.70;99.90;;;;;;5019354;28;20316;-88
2023/04/18 06:00:28;;;;;;;22.07;13.27;;;7.80;99.90;;;;;;5014216;28;20736;-85
2023/04/18 06:02:55;;;;;;;22.10;14.50;;;7.80;99.90;;;;;;5017281;28;20198;-85
2023/04/18 06:05:22;;;;;;;23.70;14.27;;;7.90;99.90;;;;;;5028056;28;20226;-84
2023/04/18 06:07:49;;;;;;;20.10;14.13;;;8.00;99.90;;;;;;5013683;28;20213;-82
2023/04/18 06:10:16;;;;;;;22.63;12.80;;;8.00;99.90;;;;;;5028542;28;20216;-82
2023/04/18 06:12:43;;;;;;;25.10;14.37;;;8.10;99.90;;;;;;5027483;28;20647;-82
2023/04/18 06:15:10;;;;;;;21.63;13.07;;;8.20;99.90;;;;;;5014854;28;20253;-81
2023/04/18 06:17:37;;;;;;;23.47;13.83;;;8.20;99.90;;;;;;5013457;28;20268;-87
2023/04/18 06:20:05;;;;;;;18.83;13.17;;;8.50;99.90;;;;;;5014526;28;20303;-83
2023/04/18 06:22:35;;;;;;;19.90;13.20;;;8.70;99.90;;;;;;5026532;28;20704;-82
2023/04/18 06:25:02;;;;;;;17.70;12.13;;;9.10;99.90;;;;;;5015162;28;20287;-82
2023/04/18 06:27:29;;;;;;;16.73;11.53;;;9.70;99.90;;;;;;5027015;28;20300;-84
2023/04/18 06:29:57;;;;;;;16.77;11.37;;;10.40;99.90;;;;;;5026071;28;20219;-82
2023/04/18 06:32:24;;;;;;;15.03;10.70;;;10.90;99.90;;;;;;5027028;28;20709;-82
2023/04/18 06:34:51;;;;;;;16.50;12.10;;;11.20;99.90;;;;;;5024642;28;20210;-82
2023/04/18 06:37:18;;;;;;;17.27;11.10;;;11.20;99.90;;;;;;5014884;28;20734;-82
2023/04/18 06:39:45;;;;;;;16.60;11.33;;;11.20;99.90;;;;;;5024443;28;20230;-84
2023/04/18 06:42:12;;;;;;;16.27;10.90;;;10.90;99.90;;;;;;5028700;28;20267;-82
2023/04/18 06:44:41;;;;;;;17.17;11.23;;;10.60;99.90;;;;;;5029312;28;20214;-82
2023/04/18 06:47:09;;;;;;;19.37;11.40;;;10.40;99.90;;;;;;5026490;28;20298;-83
2023/04/18 06:49:36;;;;;;;16.07;11.07;;;10.30;99.90;;;;;;5007078;28;20586;-84
2023/04/18 06:52:03;;;;;;;16.10;11.07;;;10.20;99.90;;;;;;5026937;28;20306;-84
2023/04/18 06:54:29;;;;;;;16.13;11.37;;;10.20;99.90;;;;;;5024177;28;20216;-84
2023/04/18 06:56:57;;;;;;;14.10;10.23;;;10.30;99.90;;;;;;5013393;28;20206;-82
2023/04/18 06:59:24;;;;;;;18.27;10.63;;;10.50;99.90;;;;;;5013948;28;20304;-84
2023/04/18 07:01:50;;;;;;;14.47;9.77;;;10.70;99.90;;;;;;5024677;28;20210;-80
2023/04/18 07:04:20;;;;;;;12.17;8.73;;;11.00;99.90;;;;;;5025057;28;20245;-84
2023/04/18 07:06:47;;;;;;;16.90;10.50;;;11.60;99.90;;;;;;5030276;28;20301;-84
2023/04/18 07:09:14;;;;;;;14.87;9.90;;;12.00;99.90;;;;;;5017906;28;20199;-84
2023/04/18 07:11:40;;;;;;;14.37;9.43;;;12.40;99.90;;;;;;5013423;28;20275;-84
2023/04/18 07:14:10;;;;;;;12.33;9.37;;;12.90;99.90;;;;;;5032587;28;20304;-85
2023/04/18 07:16:37;;;;;;;12.80;9.65;;;13.60;99.90;;;;;;5038215;28;20209;-87
2023/04/18 07:19:05;;;;;;;12.65;9.88;;;14.20;99.90;;;;;;5025492;28;20195;-86
2023/04/18 07:21:32;;;;;;;10.35;8.32;;;14.80;99.90;;;;;;5043210;28;20242;-85
2023/04/18 07:24:02;;;;;;;11.32;8.23;;;15.50;99.90;;;;;;5014671;28;20278;-85
2023/04/18 07:26:29;;;;;;;9.63;7.45;;;15.50;99.90;;;;;;5014818;28;20725;-83
2023/04/18 07:28:56;;;;;;;10.65;7.63;;;15.80;99.90;;;;;;5033447;28;20206;-83
2023/04/18 07:31:24;;;;;;;10.20;7.75;;;14.90;99.90;;;;;;5030476;28;20213;-84
2023/04/18 07:33:51;;;;;;;11.98;8.75;;;15.00;99.90;;;;;;5009399;28;20212;-84
2023/04/18 07:36:18;;;;;;;9.43;7.63;;;15.00;99.90;;;;;;5019989;28;20198;-84
2023/04/18 07:38:54;;;;;;;11.52;7.90;;;15.20;99.90;;;;;;5017644;28;20204;-84
2023/04/18 07:41:24;;;;;;;10.95;8.20;;;15.30;99.90;;;;;;5019444;28;20202;-85
2023/04/18 07:43:51;;;;;;;13.55;8.48;;;15.00;99.90;;;;;;5017887;28;20233;-84
2023/04/18 07:46:19;;;;;;;9.93;7.70;;;15.00;99.90;;;;;;5028752;28;20232;-86
2023/04/18 07:48:47;;;;;;;9.00;7.60;;;15.40;99.90;;;;;;5021389;28;20312;-85
2023/04/18 07:51:17;;;;;;;10.50;7.55;;;;;;;;;;5015568;28;20206;-87
2023/04/18 07:53:44;;;;;;;10.80;8.02;;;16.60;99.90;;;;;;5013951;28;20209;-81
2023/04/18 07:56:18;;;;;;;9.45;7.35;;;16.00;99.90;;;;;;5011387;28;20738;-85
2023/04/18 07:58:45;;;;;;;10.20;7.90;;;15.30;99.90;;;;;;5019534;28;20194;-85
2023/04/18 08:01:17;;;;;;;9.70;7.80;;;14.50;99.90;;;;;;5021238;28;20217;-83
2023/04/18 08:03:49;;;;;;;10.48;7.90;;;13.90;99.90;;;;;;5015669;28;20237;-86
2023/04/18 08:06:16;;;;;;;11.80;8.20;;;13.30;99.90;;;;;;5021425;28;20230;-85
2023/04/18 08:08:43;;;;;;;11.73;8.30;;;12.90;99.90;;;;;;5023901;28;20297;-85
2023/04/18 08:11:10;;;;;;;12.83;9.17;;;12.70;99.90;;;;;;5010102;28;20211;-84
2023/04/18 08:13:43;;;;;;;11.93;8.50;;;12.20;99.90;;;;;;5019537;28;20645;-86
2023/04/18 08:16:47;;;;;;;14.80;9.93;;;12.00;99.90;;;;;;5009039;28;20217;-85
2023/04/18 08:19:17;;;;;;;16.43;10.50;;;11.80;99.90;;;;;;5030974;28;20573;-83
2023/04/18 08:21:50;;;;;;;14.77;9.43;;;11.70;99.90;;;;;;5018471;28;20229;-86
2023/04/18 08:24:22;;;;;;;14.40;9.40;;;11.60;99.90;;;;;;5025859;28;20232;-85
2023/04/18 08:26:51;;;;;;;13.60;9.20;;;11.40;99.90;;;;;;5028194;28;20221;-84
2023/04/18 08:29:28;;;;;;;13.27;9.43;;;11.30;99.90;;;;;;5015803;28;20371;-83
2023/04/18 08:32:00;;;;;;;15.50;9.33;;;11.30;99.90;;;;;;5030758;28;20769;-85
2023/04/18 08:34:28;;;;;;;13.63;9.27;;;11.10;99.90;;;;;;5037867;28;20201;-83
2023/04/18 08:36:58;;;;;;;13.60;8.57;;;11.20;99.90;;;;;;5006833;28;20296;-84
2023/04/18 08:39:25;;;;;;;12.93;8.97;;;11.40;99.90;;;;;;5009017;28;20239;-85
2023/04/18 08:42:02;;;;;;;12.10;8.40;;;11.70;99.90;;;;;;5008509;28;20682;-82
2023/04/18 08:44:29;;;;;;;10.70;7.97;;;11.60;99.90;;;;;;5023652;28;20304;-82
2023/04/18 08:46:56;;;;;;;12.50;8.23;;;11.50;99.90;;;;;;5019897;28;20242;-84
2023/04/18 08:49:23;;;;;;;12.43;8.13;;;11.50;99.90;;;;;;5023786;28;20260;-83
2023/04/18 08:51:51;;;;;;;10.87;7.27;;;11.60;99.90;;;;;;5008373;28;20197;-81
2023/04/18 08:54:21;;;;;;;11.17;7.97;;;11.80;99.90;;;;;;5005892;28;20214;-80
2023/04/18 08:57:06;;;;;;;9.80;7.30;;;11.60;99.90;;;;;;5036861;28;20229;-81
2023/04/18 08:59:34;;;;;;;9.17;7.37;;;11.50;99.90;;;;;;5015738;28;20225;-82
2023/04/18 09:02:03;;;;;;;11.10;8.23;;;11.50;99.90;;;;;;5037149;28;20590;-83
2023/04/18 09:04:36;;;;;;;10.73;7.47;;;11.60;99.90;;;;;;5009120;28;20208;-82
2023/04/18 09:07:06;;;;;;;11.40;7.60;;;11.50;99.90;;;;;;5023594;28;20669;-80
2023/04/18 09:09:44;;;;;;;11.90;7.87;;;11.30;99.90;;;;;;5015162;28;20693;-81
2023/04/18 09:12:21;;;;;;;10.47;7.73;;;11.40;99.90;;;;;;5030374;28;20733;-82
2023/04/18 09:14:53;;;;;;;9.73;7.30;;;11.40;99.90;;;;;;5024877;28;20631;-82
2023/04/18 09:17:33;;;;;;;12.60;8.07;;;11.30;99.90;;;;;;5023938;28;20198;-85
2023/04/18 09:20:05;;;;;;;13.10;8.33;;;11.30;99.90;;;;;;5030666;28;20574;-83
2023/04/18 09:22:50;;;;;;;12.43;8.50;;;11.50;99.90;;;;;;5005647;28;20718;-85
2023/04/18 09:25:45;;;;;;;10.17;7.90;;;11.70;99.90;;;;;;5033493;28;20230;-86
2023/04/18 09:28:22;;;;;;;10.00;7.77;;;11.80;99.90;;;;;;5026964;28;20209;-84
2023/04/18 09:30:53;;;;;;;11.63;7.40;;;12.00;99.90;;;;;;5031630;28;20213;-84
2023/04/18 09:33:33;;;;;;;12.60;7.40;;;12.00;99.90;;;;;;5022797;28;20233;-83
2023/04/18 09:36:20;;;;;;;10.87;8.23;;;12.10;99.90;;;;;;5022626;28;20314;-82
2023/04/18 09:38:51;;;;;;;12.10;8.00;;;12.20;99.90;;;;;;5029685;28;20244;-83
2023/04/18 09:41:22;;;;;;;10.60;7.50;;;12.20;99.90;;;;;;5018065;28;20216;-84
2023/04/18 09:43:49;;;;;;;11.40;8.47;;;12.40;99.90;;;;;;5020581;28;20211;-83
2023/04/18 09:46:16;;;;;;;13.37;9.27;;;12.60;99.90;;;;;;5028900;28;20266;-84
2023/04/18 09:48:43;;;;;;;11.83;8.80;;;12.80;99.90;;;;;;5044682;28;20287;-82
2023/04/18 09:51:15;;;;;;;11.50;8.97;;;12.80;99.90;;;;;;5023520;28;20205;-84
2023/04/18 09:53:43;;;;;;;11.63;8.73;;;12.90;99.90;;;;;;5022952;28;20733;-83
2023/04/18 09:56:26;;;;;;;11.73;8.60;;;13.10;99.90;;;;;;5007451;28;20202;-84
2023/04/18 09:59:07;;;;;;;12.53;9.33;;;13.20;99.90;;;;;;5016872;28;20713;-84
2023/04/18 10:01:34;;;;;;;12.10;9.77;;;13.30;99.90;;;;;;5029125;28;20583;-84
2023/04/18 10:04:05;;;;;;;11.90;9.30;;;13.30;99.90;;;;;;5016300;28;20206;-83
2023/04/18 10:06:33;;;;;;;11.90;8.63;;;13.50;99.90;;;;;;5024299;28;21218;-82
2023/04/18 10:09:03;;;;;;;12.03;9.33;;;13.60;99.90;;;;;;5008648;28;20198;-82
2023/04/18 10:11:30;;;;;;;12.70;9.90;;;13.60;99.90;;;;;;5025928;28;20298;-82
2023/04/18 10:14:01;;;;;;;14.77;9.70;;;13.80;99.90;;;;;;5029456;28;20646;-84
2023/04/18 10:16:28;;;;;;;14.83;10.90;;;14.00;99.90;;;;;;5024658;28;20268;-82
2023/04/18 10:18:57;;;;;;;13.17;9.67;;;14.00;99.90;;;;;;5030718;28;20721;-81
2023/04/18 10:21:27;;;;;;;12.77;9.97;;;13.90;99.90;;;;;;5027739;28;20292;-81
2023/04/18 10:23:54;;;;;;;13.80;10.27;;;13.70;99.90;;;;;;5034848;28;20214;-82
2023/04/18 10:26:48;;;;;;;14.63;10.80;;;13.60;99.90;;;;;;5025427;28;20565;-82
2023/04/18 10:29:17;;;;;;;15.17;10.37;;;13.30;99.90;;;;;;5026934;28;20254;-83
2023/04/18 10:31:46;;;;;;;15.63;11.10;;;13.10;99.90;;;;;;5030074;28;20198;-83
2023/04/18 10:34:16;;;;;;;14.20;10.27;;;13.10;99.90;;;;;;5024656;28;20202;-80
2023/04/18 10:37:03;;;;;;;15.93;11.13;;;13.20;99.90;;;;;;5027634;28;20271;-83
2023/04/18 10:39:45;;;;;;;15.60;10.67;;;13.40;99.90;;;;;;5030639;28;20210;-82
2023/04/18 10:42:12;;;;;;;12.17;10.40;;;13.30;99.90;;;;;;5013265;28;20236;-81
2023/04/18 10:44:39;;;;;;;15.20;10.27;;;13.40;99.90;;;;;;5010200;28;20214;-82
2023/04/18 10:47:05;;;;;;;16.63;11.80;;;13.50;99.90;;;;;;5004766;28;20234;-82
2023/04/18 10:49:35;;;;;;;18.93;12.00;;;13.60;99.90;;;;;;5029390;28;20973;-82
2023/04/18 10:52:06;;;;;;;17.37;11.20;;;13.70;99.90;;;;;;5028135;28;20216;-83
2023/04/18 10:54:57;;;;;;;14.30;10.97;;;13.90;99.90;;;;;;5031022;28;20285;-80
2023/04/18 10:57:39;;;;;;;14.97;11.07;;;13.90;99.90;;;;;;5015563;28;20206;-82
2023/04/18 11:00:10;;;;;;;19.20;11.27;;;13.90;99.90;;;;;;5023495;28;20226;-81
2023/04/18 11:02:38;;;;;;;18.40;12.47;;;14.00;99.90;;;;;;5030023;28;20198;-80
2023/04/18 11:05:08;;;;;;;15.57;11.57;;;14.10;99.90;;;;;;5023367;28;20290;-79
2023/04/18 11:07:39;;;;;;;14.57;9.90;;;14.20;99.90;;;;;;5012572;28;20233;-83
2023/04/18 11:10:08;;;;;;;14.73;10.47;;;14.20;99.90;;;;;;5027518;28;20233;-85
2023/04/18 11:12:37;;;;;;;13.63;10.20;;;14.10;99.90;;;;;;5011270;28;20249;-82
2023/04/18 11:15:11;;;;;;;14.50;10.50;;;14.20;99.90;;;;;;5025281;28;20249;-84
2023/04/18 11:17:39;;;;;;;15.93;11.13;;;14.30;99.90;;;;;;5010007;28;20241;-81
2023/04/18 11:20:13;;;;;;;14.43;9.87;;;14.40;99.90;;;;;;5026243;28;20213;-81
2023/04/18 11:22:51;;;;;;;12.30;10.20;;;14.50;99.90;;;;;;5008072;28;20205;-81
2023/04/18 11:25:23;;;;;;;13.27;9.70;;;14.30;99.90;;;;;;5011261;28;20207;-82
2023/04/18 11:27:50;;;;;;;16.00;10.77;;;14.30;99.90;;;;;;5025642;28;20741;-83
2023/04/18 11:30:17;;;;;;;14.37;9.73;;;14.30;99.90;;;;;;5014572;28;20214;-84
2023/04/18 11:32:44;;;;;;;14.40;10.63;;;14.40;99.90;;;;;;5017301;28;20216;-82
2023/04/18 11:35:14;;;;;;;13.20;10.40;;;14.50;99.90;;;;;;5027478;28;20620;-83
2023/04/18 11:37:44;;;;;;;12.47;10.13;;;14.60;99.90;;;;;;5029440;28;20626;-82
2023/04/18 11:40:12;;;;;;;12.27;10.03;;;14.80;99.90;;;;;;5024330;28;20692;-82
2023/04/18 11:42:40;;;;;;;12.57;9.83;;;14.70;99.90;;;;;;5025466;28;20289;-81
2023/04/18 11:45:12;;;;;;;15.77;10.60;;;14.70;99.90;;;;;;5013325;28;20221;-82
2023/04/18 11:47:41;;;;;;;15.27;11.47;;;14.50;99.90;;;;;;5027818;28;20280;-84
2023/04/18 11:50:10;;;;;;;17.13;12.17;;;14.50;99.90;;;;;;5018084;28;20286;-83
2023/04/18 11:52:39;;;;;;;15.60;11.57;;;14.40;99.90;;;;;;5038543;28;20652;-87
2023/04/18 11:55:16;;;;;;;16.57;11.97;;;14.30;99.90;;;;;;5013524;28;20267;-83
2023/04/18 11:57:51;;;;;;;17.37;12.00;;;14.30;99.90;;;;;;5021750;28;20215;-81
2023/04/18 12:00:33;;;;;;;15.37;12.33;;;14.20;99.90;;;;;;5025954;28;20232;-83
2023/04/18 12:03:06;;;;;;;19.10;12.40;;;14.20;99.90;;;;;;5023761;28;20198;-82
2023/04/18 12:05:36;;;;;;;14.57;11.50;;;14.20;99.90;;;;;;5014639;28;20193;-83
2023/04/18 12:08:33;;;;;;;16.60;12.87;;;14.20;99.90;;;;;;5029774;28;20229;-84
2023/04/18 12:11:05;;;;;;;19.33;13.93;;;14.10;99.90;;;;;;5003597;28;20276;-86
2023/04/18 12:13:32;;;;;;;16.00;12.80;;;14.10;99.90;;;;;;5011026;28;20627;-83
2023/04/18 12:16:01;;;;;;;18.93;13.27;;;14.10;99.90;;;;;;5008622;28;20223;-81
2023/04/18 12:18:31;;;;;;;21.13;14.67;;;14.20;99.90;;;;;;5020016;28;20210;-84
2023/04/18 12:21:00;;;;;;;17.97;14.03;;;14.20;99.90;;;;;;5006788;28;20606;-83
2023/04/18 12:23:40;;;;;;;20.77;14.13;;;14.20;99.90;;;;;;5027516;28;20221;-84
2023/04/18 12:26:12;;;;;;;18.23;13.47;;;14.50;99.90;;;;;;5009095;28;20238;-83
2023/04/18 12:28:43;;;;;;;16.63;13.07;;;14.70;99.90;;;;;;5011131;28;20198;-82
2023/04/18 12:31:10;;;;;;;16.67;12.35;;;15.10;99.90;;;;;;5026963;28;20239;-82
2023/04/18 12:33:37;;;;;;;18.50;13.70;;;15.10;99.90;;;;;;5023366;28;20241;-83
2023/04/18 12:36:04;;;;;;;19.50;13.93;;;15.10;99.90;;;;;;5022239;28;20671;-86
2023/04/18 12:38:31;;;;;;;18.58;12.88;;;15.00;99.90;;;;;;5025688;28;20293;-85
2023/04/18 12:40:58;;;;;;;21.38;14.80;;;14.80;99.90;;;;;;5015303;28;20210;-85
2023/04/18 12:43:25;;;;;;;19.23;13.70;;;14.80;99.90;;;;;;5011537;28;20205;-84
2023/04/18 12:45:52;;;;;;;18.20;12.45;;;14.90;99.90;;;;;;5022875;28;20230;-84